Time;durP1;ratioP1;P1;durP2;ratioP2;P2;SDS_P1;SDS_P2;PMS_P1;PMS_P2;Temp;Humidity;BMP_temperature;BMP_pressure;BME280_temperature;BME280_humidity;BME280_pressure;Samples;Min_cycle;Max_cycle;Signal;HPM_P1;HPM_P2
2022/01/15 00:01:36;;;;;;;151.70;23.87;;;;;;;-3.53;100.00;100036.47;4973574;28;20211;-57
2022/01/15 00:04:03;;;;;;;149.87;22.23;;;;;;;-3.53;100.00;100039.03;4971024;28;20220;-56
2022/01/15 00:06:30;;;;;;;179.63;24.33;;;;;;;-3.61;100.00;100038.31;4977582;28;20344;-56
2022/01/15 00:08:57;;;;;;;152.30;23.10;;;;;;;-3.61;100.00;100030.66;4991871;28;20199;-57
2022/01/15 00:11:23;;;;;;;190.87;24.37;;;;;;;-3.66;100.00;100032.44;4980619;28;20226;-56
2022/01/15 00:13:55;;;;;;;96.90;21.20;;;;;;;-3.61;100.00;100021.28;4972142;28;20216;-57
2022/01/15 00:16:32;;;;;;;93.23;22.70;;;;;;;-3.65;100.00;100012.00;4969379;28;20278;-57
2022/01/15 00:19:05;;;;;;;90.90;22.60;;;;;;;-3.78;100.00;100013.94;4972192;28;20220;-57
2022/01/15 00:21:32;;;;;;;103.20;22.87;;;;;;;-3.79;100.00;100007.13;4976821;28;20318;-57
2022/01/15 00:23:59;;;;;;;66.57;21.90;;;;;;;-3.88;100.00;100003.03;4987118;28;20225;-57
2022/01/15 00:26:26;;;;;;;99.30;22.67;;;;;;;-3.90;100.00;100004.78;4977214;28;20197;-57
2022/01/15 00:28:53;;;;;;;53.33;22.23;;;;;;;-3.81;100.00;100005.50;4991496;28;20196;-55
2022/01/15 00:31:20;;;;;;;70.57;21.30;;;;;;;-3.82;100.00;100001.25;4980792;28;20224;-55
2022/01/15 00:33:48;;;;;;;53.13;20.13;;;;;;;-3.79;100.00;100007.13;4971876;28;20212;-55
2022/01/15 00:36:17;;;;;;;66.50;21.50;;;;;;;-3.75;100.00;100000.28;4960326;28;20214;-55
2022/01/15 00:38:44;;;;;;;79.27;21.93;;;;;;;-3.78;100.00;99998.63;4955907;28;20197;-55
2022/01/15 00:41:11;;;;;;;60.83;21.73;;;;;;;-3.80;100.00;99997.78;4964289;28;20739;-55
2022/01/15 00:43:40;;;;;;;97.13;21.03;;;;;;;-3.74;100.00;100000.25;4995009;28;20212;-55
2022/01/15 00:46:07;;;;;;;61.07;21.50;;;;;;;-3.67;100.00;99998.41;4991122;28;20235;-56
2022/01/15 00:48:34;;;;;;;72.10;20.40;;;;;;;-3.72;100.00;99990.84;4987161;28;20267;-56
2022/01/15 00:51:02;;;;;;;71.50;21.13;;;;;;;-3.62;100.00;99990.69;4974876;28;20205;-56
2022/01/15 00:53:29;;;;;;;49.80;20.63;;;;;;;-3.59;100.00;99994.03;4975693;28;20217;-56
2022/01/15 00:55:55;;;;;;;55.50;20.17;;;;;;;-3.56;100.00;99993.97;4975211;28;20193;-56
2022/01/15 00:58:22;;;;;;;41.53;19.60;;;;;;;-3.48;100.00;99990.44;4975390;28;20191;-56
2022/01/15 01:00:49;;;;;;;128.93;21.97;;;;;;;-3.49;100.00;99992.16;4974934;28;20211;-56
2022/01/15 01:03:16;;;;;;;119.77;21.23;;;;;;;-3.38;100.00;99986.84;4975238;28;20216;-56
2022/01/15 01:05:43;;;;;;;138.03;21.40;;;;;;;-3.43;100.00;99994.59;4975410;28;20672;-56
2022/01/15 01:08:11;;;;;;;75.50;21.47;;;;;;;-3.38;100.00;99993.69;4975361;28;20204;-56
2022/01/15 01:10:54;;;;;;;103.47;21.27;;;;;;;-3.35;100.00;99991.06;4975112;28;20612;-56
2022/01/15 01:13:42;;;;;;;83.17;20.57;;;;;;;-3.35;100.00;99983.41;4974886;28;20204;-56
2022/01/15 01:24:27;;;;;;;189.17;22.93;;;;;;;-3.24;100.00;99978.09;4975236;28;20251;-56
2022/01/15 01:26:58;;;;;;;140.00;22.27;;;;;;;-3.26;100.00;99985.78;4974729;28;20256;-56
2022/01/15 01:29:45;;;;;;;67.40;21.97;;;;;;;-3.20;100.00;99977.16;4975480;28;20196;-56
2022/01/15 01:32:28;;;;;;;102.77;22.03;;;;;;;-3.23;100.00;99977.22;4973268;28;20669;-56
2022/01/15 01:34:54;;;;;;;63.30;20.40;;;;;;;-3.17;100.00;99977.91;4974994;28;20215;-56
2022/01/15 01:37:31;;;;;;;62.43;20.47;;;;;;;-3.20;100.00;99969.50;4965212;28;20202;-56
2022/01/15 01:40:15;;;;;;;97.67;21.63;;;;;;;-3.16;100.00;99971.94;4972815;28;20199;-56
2022/01/15 01:42:51;;;;;;;58.97;19.77;;;;;;;-3.21;100.00;99975.47;4974583;28;20621;-56
2022/01/15 01:45:18;;;;;;;38.67;17.97;;;;;;;-3.23;100.00;99972.09;4974900;28;20201;-56
2022/01/15 01:47:45;;;;;;;92.17;20.63;;;;;;;-3.22;100.00;99974.66;4974608;28;20188;-56
2022/01/15 01:50:14;;;;;;;63.77;21.03;;;;;;;-3.23;100.00;99972.97;4973933;28;20192;-56
2022/01/15 01:52:43;;;;;;;61.27;20.67;;;;;;;-3.31;100.00;99965.44;4973211;28;20280;-56
2022/01/15 01:55:12;;;;;;;55.33;19.43;;;;;;;-3.28;100.00;99969.66;4974396;28;20729;-57
2022/01/15 01:57:39;;;;;;;52.00;19.53;;;;;;;-3.32;100.00;99965.47;4974576;28;20195;-58
2022/01/15 02:00:08;;;;;;;77.77;19.80;;;;;;;-3.37;100.00;99960.44;4974062;28;20275;-57
2022/01/15 02:02:44;;;;;;;77.50;18.70;;;;;;;-3.36;100.00;99968.97;4974291;28;20609;-56
2022/01/15 02:05:12;;;;;;;101.50;21.63;;;;;;;-3.41;100.00;99964.78;4973938;28;20204;-56
2022/01/15 02:07:39;;;;;;;79.33;20.57;;;;;;;-3.44;100.00;99962.28;4969361;28;20662;-55
2022/01/15 02:10:08;;;;;;;52.13;18.40;;;;;;;-3.39;100.00;99961.34;4954621;29;20206;-57
2022/01/15 02:12:37;;;;;;;102.87;19.83;;;;;;;-3.35;100.00;99955.31;4954987;29;20197;-56
2022/01/15 02:15:12;;;;;;;61.73;19.57;;;;;;;-3.34;100.00;99954.44;4954538;28;20280;-57
2022/01/15 02:17:39;;;;;;;47.87;19.90;;;;;;;-3.34;100.00;99954.44;4954796;28;20213;-56
2022/01/15 02:20:33;;;;;;;42.73;19.27;;;;;;;-3.30;100.00;99949.25;4952981;28;20677;-56
2022/01/15 02:25:49;;;;;;;80.13;25.48;;;;;;;-3.28;100.00;99952.59;4953641;29;20435;-57
2022/01/15 02:28:17;;;;;;;69.13;21.23;;;;;;;-3.24;100.00;99950.00;4954389;28;20240;-57
2022/01/15 02:30:44;;;;;;;94.20;20.83;;;;;;;-3.22;100.00;99946.56;4953937;29;20288;-55
2022/01/15 02:33:11;;;;;;;51.60;18.50;;;;;;;-3.20;100.00;99949.06;4954623;29;20218;-57
2022/01/15 02:35:40;;;;;;;81.90;20.30;;;;;;;-3.19;100.00;99948.19;4954427;28;20297;-56
2022/01/15 02:38:08;;;;;;;60.07;19.60;;;;;;;-3.21;100.00;99947.38;4956749;28;20552;-56
2022/01/15 02:40:36;;;;;;;85.30;18.90;;;;;;;-3.26;100.00;99948.31;4972996;28;20209;-57
2022/01/15 02:43:04;;;;;;;150.63;20.73;;;;;;;-3.33;100.00;99946.75;4973452;28;20282;-58
2022/01/15 02:45:33;;;;;;;49.43;18.60;;;;;;;-3.29;100.00;99939.88;4973577;28;20265;-57
2022/01/15 02:48:02;;;;;;;66.93;18.80;;;;;;;-3.27;100.00;99943.25;4973431;28;20250;-56
2022/01/15 02:50:29;;;;;;;71.97;19.20;;;;;;;-3.30;100.00;99939.03;4973283;28;20275;-57
2022/01/15 02:53:01;;;;;;;104.47;19.07;;;;;;;-3.31;100.00;99932.25;4972970;28;20248;-56
2022/01/15 02:55:28;;;;;;;49.67;17.93;;;;;;;-3.24;100.00;99932.13;4971953;28;20203;-56
2022/01/15 02:57:55;;;;;;;82.67;19.13;;;;;;;-3.38;100.00;99935.78;4972021;28;20658;-56
2022/01/15 03:00:22;;;;;;;42.77;18.57;;;;;;;-3.30;100.00;99930.53;4971329;28;20196;-57
2022/01/15 03:02:49;;;;;;;74.10;18.93;;;;;;;-3.35;100.00;99938.28;4986330;28;20227;-56
2022/01/15 03:05:16;;;;;;;71.17;18.23;;;;;;;-3.35;100.00;99924.69;4992453;28;20193;-57
2022/01/15 03:07:42;;;;;;;42.33;17.47;;;;;;;-3.31;100.00;99923.75;4992816;28;20191;-57
2022/01/15 03:10:11;;;;;;;49.00;18.97;;;;;;;-3.36;100.00;99918.72;4992151;28;20184;-57
2022/01/15 03:12:38;;;;;;;52.27;17.20;;;;;;;-3.30;100.00;99917.78;4992544;28;20534;-56
2022/01/15 03:15:08;;;;;;;113.00;17.73;;;;;;;-3.26;100.00;99914.28;4992694;28;20211;-56
2022/01/15 03:17:35;;;;;;;44.97;16.43;;;;;;;-3.33;100.00;99918.66;4992114;28;20672;-56
2022/01/15 03:20:04;;;;;;;43.73;16.40;;;;;;;-3.29;100.00;99924.56;5006285;22;20285;-70
2022/01/15 03:22:31;;;;;;;62.43;15.17;;;;;;;-3.44;100.00;99926.53;4992426;28;20787;-69
2022/01/15 03:24:58;;;;;;;91.27;18.10;;;;;;;-3.50;100.00;99919.00;4992371;28;20234;-68
2022/01/15 03:27:26;;;;;;;52.70;16.77;;;;;;;-3.42;100.00;99913.72;4992772;28;20207;-68
2022/01/15 03:29:53;;;;;;;39.50;17.03;;;;;;;-3.42;100.00;99924.81;4990320;28;20244;-69
2022/01/15 03:32:20;;;;;;;54.63;17.13;;;;;;;-3.37;100.00;99918.78;4991985;28;20187;-70
2022/01/15 03:34:48;;;;;;;74.03;17.00;;;;;;;-3.41;100.00;99912.88;4992312;28;20218;-69
2022/01/15 03:37:15;;;;;;;47.90;16.97;;;;;;;-3.36;100.00;99911.06;4992010;28;20194;-69
2022/01/15 03:39:41;;;;;;;85.23;18.20;;;;;;;-3.39;100.00;99908.56;4982754;28;20290;-69
2022/01/15 03:42:11;;;;;;;185.37;22.57;;;;;;;-3.35;100.00;99904.25;4991962;28;20260;-70
2022/01/15 03:44:41;;;;;;;118.10;19.40;;;;;;;-3.35;100.00;99909.38;4991685;28;20234;-70
2022/01/15 03:47:09;;;;;;;42.93;16.63;;;;;;;-3.30;100.00;99907.56;4976760;28;20668;-69
2022/01/15 03:49:35;;;;;;;151.33;21.10;;;;;;;-3.38;100.00;99901.75;4994561;28;20222;-69
2022/01/15 03:52:03;;;;;;;121.53;18.93;;;;;;;-3.34;100.00;99906.75;4991532;28;20219;-69
2022/01/15 03:54:29;;;;;;;146.93;18.27;;;;;;;-3.43;100.00;99899.28;4991468;28;20196;-70
2022/01/15 03:56:56;;;;;;;103.93;16.97;;;;;;;-3.36;100.00;99897.47;4986923;28;20207;-69
2022/01/15 03:59:23;;;;;;;58.80;17.60;;;;;;;-3.38;100.00;99889.81;4987599;28;20206;-69
2022/01/15 04:01:52;;;;;;;82.40;17.10;;;;;;;-3.46;100.00;99895.09;4991174;28;20212;-69
2022/01/15 04:04:19;;;;;;;117.87;17.57;;;;;;;-3.46;100.00;99881.47;4991913;28;20185;-70
2022/01/15 04:06:46;;;;;;;36.17;15.10;;;;;;;-3.43;100.00;99882.28;5003668;28;20818;-70
2022/01/15 04:09:13;;;;;;;66.90;15.90;;;;;;;-3.46;100.00;99884.03;5011131;28;20188;-70
2022/01/15 04:11:41;;;;;;;43.43;15.97;;;;;;;-3.45;100.00;99875.50;5012360;28;20266;-70
2022/01/15 04:14:08;;;;;;;48.13;17.83;;;;;;;-3.39;100.00;99880.47;5013898;28;20195;-70
2022/01/15 04:16:35;;;;;;;42.33;17.17;;;;;;;-3.35;100.00;99883.84;5015307;28;20214;-70
2022/01/15 04:19:06;;;;;;;69.70;17.83;;;;;;;-3.35;100.00;99878.72;5015307;28;20664;-70
2022/01/15 04:21:33;;;;;;;52.47;17.13;;;;;;;-3.34;100.00;99878.69;5014810;28;20227;-70
2022/01/15 04:24:00;;;;;;;33.33;15.47;;;;;;;-3.43;100.00;99882.28;5013722;28;20208;-69
2022/01/15 04:26:27;;;;;;;45.50;16.63;;;;;;;-3.39;100.00;99880.47;5015005;28;20199;-70
2022/01/15 04:29:01;;;;;;;46.27;16.17;;;;;;;-3.36;100.00;99884.69;5015083;28;20198;-70
2022/01/15 04:31:35;;;;;;;40.53;15.37;;;;;;;-3.36;100.00;99882.97;5014605;28;20213;-70
2022/01/15 04:34:03;;;;;;;67.80;14.83;;;;;;;-3.47;100.00;99884.91;5015293;28;20196;-69
2022/01/15 04:36:30;;;;;;;53.97;13.93;;;;;;;-3.62;100.00;99883.50;5014904;28;20195;-69
2022/01/15 04:38:57;;;;;;;44.27;14.23;;;;;;;-3.56;100.00;99880.84;5014616;28;20202;-69
2022/01/15 04:41:23;;;;;;;41.83;15.77;;;;;;;-3.63;100.00;99880.09;5012248;28;20219;-69
2022/01/15 04:43:50;;;;;;;36.23;14.80;;;;;;;-3.66;100.00;99876.78;4995564;28;20195;-69
2022/01/15 04:46:17;;;;;;;29.87;14.90;;;;;;;-3.64;100.00;99873.31;4995147;28;20230;-69
2022/01/15 04:48:44;;;;;;;36.10;15.77;;;;;;;-3.60;100.00;99871.56;4995124;28;20199;-70
2022/01/15 04:51:12;;;;;;;35.77;15.97;;;;;;;-3.53;100.00;99865.47;4993032;28;20214;-70
2022/01/15 04:53:39;;;;;;;32.83;15.30;;;;;;;-3.47;100.00;99874.69;4995207;28;20199;-69
2022/01/15 04:56:05;;;;;;;58.97;15.77;;;;;;;-3.49;100.00;99881.53;4995161;28;20192;-70
2022/01/15 04:58:32;;;;;;;82.73;15.40;;;;;;;-3.54;100.00;99873.13;4987502;28;20203;-68
2022/01/15 05:00:59;;;;;;;86.27;14.93;;;;;;;-3.62;100.00;99884.34;4992770;28;20225;-69
2022/01/15 05:03:26;;;;;;;48.03;13.53;;;;;;;-3.63;100.00;99877.53;4994588;28;20653;-68
2022/01/15 05:05:52;;;;;;;74.73;15.13;;;;;;;-3.67;100.00;99896.34;4994816;28;20250;-69
2022/01/15 05:08:21;;;;;;;52.93;16.13;;;;;;;-3.66;100.00;99887.81;4994568;28;20192;-69
2022/01/15 05:10:48;;;;;;;67.30;14.67;;;;;;;-3.73;100.00;99894.75;4994412;28;20209;-69
2022/01/15 05:13:19;;;;;;;95.93;16.70;;;;;;;-3.73;100.00;99881.16;4994730;28;20188;-70
2022/01/15 05:15:46;;;;;;;70.20;15.80;;;;;;;-3.76;100.00;99882.06;4994418;28;20205;-69
2022/01/15 05:18:13;;;;;;;65.23;16.03;;;;;;;-3.70;100.00;99878.53;4994468;28;20191;-70
2022/01/15 05:20:44;;;;;;;43.33;15.37;;;;;;;-3.66;100.00;99884.44;4994178;28;20274;-68
2022/01/15 05:23:11;;;;;;;34.73;13.60;;;;;;;-3.66;100.00;99871.69;4993858;28;20707;-69
2022/01/15 05:25:39;;;;;;;41.63;14.10;;;;;;;-3.73;100.00;99866.69;4994588;28;20191;-69
2022/01/15 05:28:07;;;;;;;28.63;13.87;;;;;;;-3.63;100.00;99869.06;4994266;28;20199;-69
2022/01/15 05:30:34;;;;;;;32.00;13.83;;;;;;;-3.60;100.00;99863.91;4993861;28;20219;-69
2022/01/15 05:33:01;;;;;;;31.70;13.37;;;;;;;-3.63;100.00;99859.69;4994911;28;20233;-69
2022/01/15 05:35:28;;;;;;;44.20;13.67;;;;;;;-3.63;100.00;99867.34;4994470;28;20198;-69
2022/01/15 05:37:57;;;;;;;29.10;12.97;;;;;;;-3.58;100.00;99860.44;4994335;28;20645;-69
2022/01/15 05:40:25;;;;;;;40.37;13.93;;;;;;;-3.59;100.00;99853.66;4993597;28;20253;-69
2022/01/15 05:42:54;;;;;;;54.80;12.00;;;;;;;-3.60;100.00;99862.16;5008320;28;20210;-70
2022/01/15 05:45:22;;;;;;;45.73;12.47;;;;;;;-3.65;100.00;99869.06;5013553;28;20210;-69
2022/01/15 05:47:49;;;;;;;76.40;13.53;;;;;;;-3.79;100.00;99861.69;5013639;28;20557;-69
2022/01/15 05:50:16;;;;;;;80.00;13.23;;;;;;;-3.89;100.00;99867.84;5013313;28;20208;-68
2022/01/15 05:52:42;;;;;;;54.00;12.20;;;;;;;-3.90;100.00;99868.72;5013137;28;20212;-69
2022/01/15 05:55:10;;;;;;;79.97;17.02;;;;;;;-3.86;100.00;99872.88;5001392;28;20517;-69
2022/01/15 05:57:37;;;;;;;46.40;14.20;;;;;;;-3.88;100.00;99880.59;5003518;28;20691;-69
2022/01/15 06:00:08;;;;;;;47.00;13.73;;;;;;;-3.87;100.00;99887.38;4983912;28;20208;-69
2022/01/15 06:02:40;;;;;;;45.97;14.43;;;;;;;-3.83;100.00;99880.50;4993927;28;20221;-69
2022/01/15 06:05:07;;;;;;;37.77;13.93;;;;;;;-3.74;100.00;99882.88;4993511;28;20279;-69
2022/01/15 06:07:34;;;;;;;27.93;13.47;;;;;;;-3.71;100.00;99892.19;4993549;28;20649;-70
2022/01/15 06:10:01;;;;;;;29.20;13.07;;;;;;;-3.63;100.00;99884.38;4993484;28;20226;-70
2022/01/15 06:12:31;;;;;;;127.27;14.70;;;;;;;-3.69;100.00;99892.16;4993438;28;20193;-70
2022/01/15 06:14:58;;;;;;;99.53;14.67;;;;;;;-3.67;100.00;99883.56;4993903;28;20249;-69
2022/01/15 06:17:26;;;;;;;41.73;14.67;;;;;;;-3.67;100.00;99883.56;4993402;28;20188;-69
2022/01/15 06:19:53;;;;;;;61.00;14.40;;;;;;;-3.60;100.00;99874.09;4993213;28;20230;-68
2022/01/15 06:22:20;;;;;;;71.37;13.90;;;;;;;-3.59;100.00;99880.91;4992653;28;20287;-70
2022/01/15 06:24:47;;;;;;;51.80;14.10;;;;;;;-3.54;100.00;99878.25;4992986;28;20191;-70
2022/01/15 06:27:16;;;;;;;42.50;13.07;;;;;;;-3.59;100.00;99871.50;4988133;28;20250;-68
2022/01/15 06:29:42;;;;;;;70.57;13.60;;;;;;;-3.64;100.00;99869.94;4992413;28;20212;-68
2022/01/15 06:32:10;;;;;;;127.70;15.73;;;;;;;-3.69;100.00;99877.66;4984057;28;20196;-69
2022/01/15 06:34:38;;;;;;;52.77;13.27;;;;;;;-3.63;100.00;99869.88;4983914;28;20204;-68
2022/01/15 06:37:06;;;;;;;82.80;15.10;;;;;;;-3.67;100.00;99864.88;4992790;28;20192;-69
2022/01/15 06:39:33;;;;;;;81.53;14.00;;;;;;;-3.70;100.00;99873.44;4992775;28;20271;-69
2022/01/15 06:42:00;;;;;;;36.83;12.53;;;;;;;-3.63;100.00;99861.41;4992240;28;20219;-69
2022/01/15 06:44:27;;;;;;;45.80;12.80;;;;;;;-3.63;100.00;99859.69;4992860;28;20692;-67
2022/01/15 06:46:55;;;;;;;50.80;14.37;;;;;;;-3.68;100.00;99858.09;4993001;28;20220;-68
2022/01/15 06:49:22;;;;;;;56.10;15.53;;;;;;;-3.69;100.00;99848.78;4992994;28;20250;-69
2022/01/15 06:51:50;;;;;;;54.77;15.23;;;;;;;-3.76;100.00;99854.00;4990760;28;20189;-67
2022/01/15 06:54:17;;;;;;;48.90;15.00;;;;;;;-3.75;100.00;99850.56;4987729;28;20366;-68
2022/01/15 06:56:44;;;;;;;38.97;15.60;;;;;;;-3.68;100.00;99846.16;4989677;28;20197;-67
2022/01/15 06:59:10;;;;;;;61.93;16.67;;;;;;;-3.67;100.00;99857.22;4987537;28;20196;-68
2022/01/15 07:01:37;;;;;;;86.37;28.40;;;;;;;-3.66;100.00;99859.75;4987542;28;20301;-69
2022/01/15 07:04:04;;;;;;;64.97;18.23;;;;;;;-3.73;100.00;99861.59;4986293;28;20193;-69
2022/01/15 07:06:31;;;;;;;34.03;15.13;;;;;;;-3.60;100.00;99862.16;4992600;28;20460;-69
2022/01/15 07:08:59;;;;;;;126.07;17.03;;;;;;;-3.63;100.00;99864.78;4992685;28;20192;-70
2022/01/15 07:11:26;;;;;;;48.97;14.33;;;;;;;-3.56;100.00;99862.97;4990462;28;20349;-69
2022/01/15 07:13:53;;;;;;;51.13;15.37;;;;;;;-3.59;100.00;99857.91;4988670;28;20196;-70
2022/01/15 07:16:20;;;;;;;35.73;15.13;;;;;;;-3.55;100.00;99864.66;4988583;28;20214;-69
2022/01/15 07:18:47;;;;;;;28.60;12.97;;;;;;;-3.53;100.00;99851.84;4990921;28;20743;-69
2022/01/15 07:21:14;;;;;;;31.00;14.73;;;;;;;-3.54;100.00;99850.16;4992025;28;20222;-70
2022/01/15 07:23:41;;;;;;;35.50;14.17;;;;;;;-3.50;100.00;99850.09;4992454;28;20211;-70
2022/01/15 07:26:10;;;;;;;33.53;15.17;;;;;;;-3.42;100.00;99844.81;4992543;28;20192;-70
2022/01/15 07:28:37;;;;;;;33.93;15.60;;;;;;;-3.39;100.00;99849.03;4992676;28;20276;-70
2022/01/15 07:31:04;;;;;;;35.13;17.47;;;;;;;-3.31;100.00;99837.75;4992131;28;20208;-69
2022/01/15 07:33:30;;;;;;;37.10;17.03;;;;;;;-3.28;100.00;99842.81;4992412;28;20184;-69
2022/01/15 07:35:58;;;;;;;38.70;18.73;;;;;;;-3.29;100.00;99847.97;4992355;28;20189;-69
2022/01/15 07:38:25;;;;;;;39.77;18.60;;;;;;;-3.27;100.00;99846.22;4992399;28;20195;-70
2022/01/15 07:40:55;;;;;;;63.43;35.87;;;;;;;-3.22;100.00;99851.22;4992026;28;20202;-70
2022/01/15 07:43:23;;;;;;;56.43;30.70;;;;;;;-3.23;100.00;99854.63;4992733;28;20280;-69
2022/01/15 07:45:50;;;;;;;57.20;23.13;;;;;;;-3.31;100.00;99860.75;4991198;28;20192;-69
2022/01/15 07:48:17;;;;;;;61.00;15.07;;;;;;;-3.39;100.00;99864.34;4992119;28;20192;-69
2022/01/15 07:50:44;;;;;;;44.57;15.23;;;;;;;-3.41;100.00;99867.75;4990552;28;20230;-68
2022/01/15 07:53:11;;;;;;;86.40;16.47;;;;;;;-3.51;100.00;99862.88;4999297;28;20193;-70
2022/01/15 07:55:38;;;;;;;42.63;16.53;;;;;;;-3.58;100.00;99865.53;5000228;28;20187;-68
2022/01/15 07:58:07;;;;;;;76.27;15.03;;;;;;;-3.60;100.00;99864.72;5000315;28;20656;-69
2022/01/15 08:00:35;;;;;;;83.17;15.77;;;;;;;-3.53;100.00;99855.25;5001138;28;20222;-69
2022/01/15 08:03:02;;;;;;;160.17;18.50;;;;;;;-3.48;100.00;99856.00;5006848;28;20261;-69
2022/01/15 08:05:29;;;;;;;116.53;17.40;;;;;;;-3.39;100.00;99861.78;5011638;28;20202;-69
2022/01/15 08:07:56;;;;;;;127.63;19.10;;;;;;;-3.36;100.00;99865.09;5011710;28;20657;-69
2022/01/15 08:10:23;;;;;;;103.23;18.97;;;;;;;-3.30;100.00;99866.69;5011287;28;20203;-69
2022/01/15 08:12:50;;;;;;;76.77;17.83;;;;;;;-3.21;100.00;99869.06;5011635;28;20190;-69
2022/01/15 08:15:19;;;;;;;93.40;18.40;;;;;;;-3.22;100.00;99871.63;5026629;28;20215;-69
2022/01/15 08:17:48;;;;;;;159.63;32.27;;;;;;;-3.24;100.00;99865.72;5010290;28;20189;-69
2022/01/15 08:20:15;;;;;;;60.97;19.97;;;;;;;-3.31;100.00;99863.28;5011152;28;20215;-69
2022/01/15 08:22:44;;;;;;;57.40;20.03;;;;;;;-3.10;100.00;99861.16;5011473;28;20703;-70
2022/01/15 08:25:13;;;;;;;99.97;20.67;;;;;;;-3.04;100.00;99861.03;5011563;28;20212;-69
2022/01/15 08:27:40;;;;;;;75.50;18.33;;;;;;;-2.89;100.00;99856.44;5011319;28;20179;-70
2022/01/15 08:30:09;;;;;;;74.70;28.33;;;;;;;-2.83;100.00;99861.41;5011305;28;20212;-70
2022/01/15 08:32:37;;;;;;;48.07;19.67;;;;;;;-2.70;100.00;99859.41;4988562;28;20200;-70
2022/01/15 08:35:07;;;;;;;52.83;19.40;;;;;;;-2.64;100.00;99860.97;4987332;28;20195;-70
2022/01/15 08:37:35;;;;;;;52.17;19.17;;;;;;;-2.66;100.00;99861.00;4990584;28;20208;-69
2022/01/15 08:40:02;;;;;;;47.50;16.83;;;;;;;-2.60;100.00;99858.31;4991717;28;20214;-70
2022/01/15 08:42:28;;;;;;;35.30;16.53;;;;;;;-2.59;100.00;99854.88;4990705;28;20216;-70
2022/01/15 08:44:55;;;;;;;48.70;17.57;;;;;;;-2.57;100.00;99855.69;4992092;28;20196;-70
2022/01/15 08:47:22;;;;;;;62.80;19.60;;;;;;;-2.53;100.00;99847.06;4992058;28;20196;-69
2022/01/15 08:49:49;;;;;;;45.83;18.53;;;;;;;-2.44;100.00;99853.66;4991819;28;20208;-69
2022/01/15 08:52:18;;;;;;;55.70;19.77;;;;;;;-2.42;100.00;99851.91;4991807;28;20199;-69
2022/01/15 08:54:44;;;;;;;43.03;18.40;;;;;;;-2.39;99.99;99845.88;4989347;28;20614;-69
2022/01/15 08:57:11;;;;;;;36.50;16.60;;;;;;;-2.31;99.64;99849.09;4989994;28;20196;-70
2022/01/15 08:59:39;;;;;;;31.47;15.53;;;;;;;-2.39;97.75;99851.81;4995281;28;20219;-69
2022/01/15 09:02:06;;;;;;;36.58;20.13;;;;;;;-2.39;97.27;99851.81;4986023;28;20442;-73
2022/01/15 09:04:33;;;;;;;41.10;18.27;;;;;;;-2.52;96.73;99853.00;4994112;28;20239;-74
2022/01/15 09:07:01;;;;;;;42.13;19.00;;;;;;;-2.46;97.45;99855.41;4995531;28;20188;-74
2022/01/15 09:09:29;;;;;;;39.43;18.67;;;;;;;-2.36;98.77;99850.94;4994030;28;20210;-74
2022/01/15 09:11:56;;;;;;;34.23;17.17;;;;;;;-2.25;97.85;99848.94;4995171;28;20665;-73
2022/01/15 09:14:22;;;;;;;38.33;18.47;;;;;;;-2.26;96.32;99846.41;4995329;28;20215;-73
2022/01/15 09:16:49;;;;;;;46.73;19.40;;;;;;;-2.14;96.88;99843.53;4995351;28;20186;-73
2022/01/15 09:19:17;;;;;;;42.30;19.23;;;;;;;-2.02;97.49;99837.25;4995318;28;20227;-74
2022/01/15 09:21:44;;;;;;;50.27;20.50;;;;;;;-2.08;95.52;99845.06;5007805;23;20252;-67
2022/01/15 09:24:10;;;;;;;39.43;18.83;;;;;;;-1.78;96.37;99840.03;4990182;28;20680;-67
2022/01/15 09:27:00;;;;;;;42.67;19.37;;;;;;;-1.64;95.51;99834.53;4991986;28;20212;-68
2022/01/15 09:32:13;;;;;;;41.73;19.17;;;;;;;-1.59;92.83;99831.81;4969878;28;20182;-67
2022/01/15 09:34:41;;;;;;;37.63;18.90;;;;;;;-1.66;93.66;99826.06;4975257;28;20209;-67
2022/01/15 09:37:08;;;;;;;39.47;18.97;;;;;;;-1.67;92.59;99830.31;4975398;28;20204;-67
2022/01/15 09:39:36;;;;;;;43.73;19.13;;;;;;;-1.60;92.00;99835.28;4975375;28;20197;-67
2022/01/15 09:42:05;;;;;;;38.33;18.73;;;;;;;-1.52;91.45;99833.34;4975079;28;20242;-67
2022/01/15 09:44:34;;;;;;;37.23;18.00;;;;;;;-1.54;90.01;99838.47;4975348;28;20213;-68
2022/01/15 09:47:02;;;;;;;31.80;18.00;;;;;;;-1.51;91.20;99835.84;4975235;28;20182;-67
2022/01/15 09:49:30;;;;;;;37.67;18.33;;;;;;;-1.52;93.44;99841.84;4975325;28;20272;-67
2022/01/15 09:51:57;;;;;;;35.97;18.67;;;;;;;-1.48;92.99;99833.19;4973493;28;20218;-67
2022/01/15 09:54:24;;;;;;;34.50;17.97;;;;;;;-1.39;91.46;99824.41;4975088;28;20190;-67
2022/01/15 09:56:51;;;;;;;38.70;18.90;;;;;;;-1.25;89.93;99823.16;4974963;28;20197;-67
2022/01/15 09:59:20;;;;;;;41.10;19.40;;;;;;;-1.36;91.18;99815.78;4974912;28;20185;-68
2022/01/15 10:01:48;;;;;;;39.57;19.97;;;;;;;-1.54;91.21;99807.75;4974512;28;20205;-67
2022/01/15 10:04:14;;;;;;;41.27;21.13;;;;;;;-1.75;92.01;99811.78;4974886;28;20213;-67
2022/01/15 10:07:09;;;;;;;38.43;19.83;;;;;;;-1.53;92.95;99806.03;4990189;28;20200;-67
2022/01/15 10:09:37;;;;;;;41.43;19.47;;;;;;;-1.76;92.02;99804.16;4973973;28;20201;-67
2022/01/15 10:12:05;;;;;;;39.63;20.27;;;;;;;-1.60;93.48;99802.84;4974426;28;20212;-67
2022/01/15 10:14:34;;;;;;;42.13;19.53;;;;;;;-1.86;93.22;99796.72;4974850;28;20196;-67
2022/01/15 10:17:03;;;;;;;43.00;19.83;;;;;;;-1.59;93.03;99790.84;4974738;28;20297;-68
2022/01/15 10:19:33;;;;;;;38.30;19.80;;;;;;;-1.52;93.38;99790.63;4974719;28;20190;-67
2022/01/15 10:22:06;;;;;;;37.83;19.40;;;;;;;-1.46;91.65;99794.75;4974129;28;20216;-67
2022/01/15 10:24:33;;;;;;;40.17;20.07;;;;;;;-1.47;92.45;99790.50;4973234;28;20221;-67
2022/01/15 10:27:18;;;;;;;45.73;21.27;;;;;;;-1.38;91.70;99790.22;4974639;28;20197;-67
2022/01/15 10:29:54;;;;;;;45.00;21.97;;;;;;;-1.36;91.52;99782.47;4974482;28;20212;-67
2022/01/15 10:32:21;;;;;;;45.27;21.73;;;;;;;-1.27;90.79;99784.75;4974343;28;20193;-67
2022/01/15 10:34:48;;;;;;;47.10;23.67;;;;;;;-1.42;92.96;99780.09;4974351;28;20654;-67
2022/01/15 10:37:19;;;;;;;43.43;22.20;;;;;;;-1.34;92.25;99778.16;4974354;28;20207;-67
2022/01/15 10:39:59;;;;;;;46.93;24.53;;;;;;;-1.17;92.69;99776.81;4974329;28;20193;-67
2022/01/15 10:42:27;;;;;;;45.13;21.90;;;;;;;-1.34;93.38;99778.16;4974214;28;20182;-67
2022/01/15 10:44:57;;;;;;;45.83;22.40;;;;;;;-1.36;93.38;99772.25;4974238;28;20217;-66
2022/01/15 10:47:26;;;;;;;45.13;22.93;;;;;;;-1.15;93.17;99770.75;4974108;28;20193;-66
2022/01/15 10:49:57;;;;;;;58.20;26.17;;;;;;;-1.22;93.02;99770.09;4974052;28;20555;-66
2022/01/15 10:52:26;;;;;;;56.77;27.53;;;;;;;-1.27;93.25;99766.84;4974040;28;20208;-67
2022/01/15 10:54:58;;;;;;;51.73;26.03;;;;;;;-1.31;93.63;99767.00;4974011;28;20647;-67
2022/01/15 10:57:27;;;;;;;60.87;29.37;;;;;;;-1.27;94.52;99773.69;4973881;28;20205;-67
2022/01/15 11:00:01;;;;;;;55.97;26.67;;;;;;;-1.19;95.01;99764.06;4973581;28;20213;-67
2022/01/15 11:02:28;;;;;;;58.43;27.93;;;;;;;-1.10;94.93;99766.31;4973922;28;20662;-67
2022/01/15 11:04:55;;;;;;;62.27;26.63;;;;;;;-1.21;92.46;99765.81;4973851;28;20222;-67
2022/01/15 11:07:22;;;;;;;64.97;27.57;;;;;;;-1.27;94.15;99768.56;4973930;28;20177;-67
2022/01/15 11:09:53;;;;;;;56.57;28.90;;;;;;;-1.18;93.89;99770.84;4973959;28;20208;-67
2022/01/15 11:12:25;;;;;;;71.80;27.80;;;;;;;-1.11;93.16;99767.22;4973616;28;20201;-66
2022/01/15 11:14:52;;;;;;;76.63;28.13;;;;;;;-1.24;92.76;99759.06;4973719;28;20245;-67
2022/01/15 11:17:20;;;;;;;54.87;28.10;;;;;;;-1.44;93.56;99764.78;4973698;28;20186;-67
2022/01/15 11:19:52;;;;;;;55.50;26.67;;;;;;;-1.45;94.58;99773.38;4973425;28;20212;-67
2022/01/15 11:22:22;;;;;;;62.50;28.47;;;;;;;-1.40;95.82;99768.09;4972197;28;20201;-67
2022/01/15 11:24:50;;;;;;;52.67;25.47;;;;;;;-1.31;95.18;99765.25;4973190;28;20264;-67
2022/01/15 11:27:18;;;;;;;47.63;24.10;;;;;;;-1.32;94.69;99773.00;4973360;28;20245;-67
2022/01/15 11:29:47;;;;;;;53.80;25.23;;;;;;;-1.49;94.88;99766.66;4973580;28;20216;-66